Аэропорт: Петропавловск. Петропавловск

ICAO: UACP

METAR:
2018/05/20 11:30
UACP 201130Z 22013MPS CAVOK 28/07 Q1012 R23/0/0060 NOSIG RMK QFE747/0996
METAR:
2014/11/02 09:00
TAF UACP 020753Z 0209/0218 21004MPS 9999 BKN030